Time;durP1;ratioP1;P1;durP2;ratioP2;P2;SDS_P1;SDS_P2;PMS_P1;PMS_P2;Temp;Humidity;BMP_temperature;BMP_pressure;BME280_temperature;BME280_humidity;BME280_pressure;Samples;Min_cycle;Max_cycle;Signal;HPM_P1;HPM_P2
2021/07/19 00:01:59;;;;;;;6.88;3.00;;;18.60;99.90;;;;;;5031505;28;20025;-39
2021/07/19 00:04:25;;;;;;;8.05;3.20;;;18.60;99.90;;;;;;5032733;28;20021;-38
2021/07/19 00:06:50;;;;;;;7.30;3.50;;;18.50;99.90;;;;;;5032824;28;20524;-42
2021/07/19 00:09:16;;;;;;;6.32;3.47;;;18.50;99.90;;;;;;5032949;28;20105;-43
2021/07/19 00:11:42;;;;;;;5.65;2.80;;;18.50;99.90;;;;;;5032738;28;20500;-43
2021/07/19 00:14:09;;;;;;;5.72;3.17;;;18.40;99.90;;;;;;5032762;28;20033;-43
2021/07/19 00:16:35;;;;;;;7.38;3.40;;;18.40;99.90;;;;;;5031342;28;20220;-40
2021/07/19 00:19:02;;;;;;;6.93;2.95;;;18.30;99.90;;;;;;5032746;28;20036;-41
2021/07/19 00:21:27;;;;;;;5.80;3.20;;;18.30;99.90;;;;;;5032496;28;20499;-41
2021/07/19 00:23:53;;;;;;;4.60;3.17;;;18.30;99.90;;;;;;5032598;28;20105;-38
2021/07/19 00:26:21;;;;;;;4.47;2.90;;;18.30;99.90;;;;;;5032480;28;20026;-40
2021/07/19 00:28:48;;;;;;;5.05;3.03;;;18.30;99.90;;;;;;5032689;28;20021;-44
2021/07/19 00:31:13;;;;;;;5.60;3.22;;;18.30;99.90;;;;;;5031229;28;20064;-41
2021/07/19 00:33:39;;;;;;;6.95;3.30;;;18.30;99.90;;;;;;5032696;28;20069;-39
2021/07/19 00:36:06;;;;;;;5.10;2.42;;;18.40;99.90;;;;;;5032564;28;20057;-38
2021/07/19 00:38:31;;;;;;;5.18;3.08;;;18.40;99.90;;;;;;5032430;28;20017;-39
2021/07/19 00:40:57;;;;;;;5.28;3.17;;;18.40;99.90;;;;;;5032360;28;20116;-40
2021/07/19 00:43:23;;;;;;;8.05;3.83;;;18.50;99.90;;;;;;5032464;28;20022;-38
2021/07/19 00:45:48;;;;;;;6.25;3.40;;;18.50;99.90;;;;;;5031197;28;20030;-38
2021/07/19 00:48:16;;;;;;;8.55;3.72;;;18.60;99.90;;;;;;5032409;28;20384;-40
2021/07/19 00:50:42;;;;;;;6.10;3.35;;;18.50;99.90;;;;;;5032434;28;20469;-42
2021/07/19 00:53:08;;;;;;;5.40;3.17;;;18.60;99.90;;;;;;5032354;28;20032;-41
2021/07/19 00:55:42;;;;;;;7.00;3.58;;;18.60;99.90;;;;;;5032321;28;20021;-42
2021/07/19 00:58:09;;;;;;;8.45;3.10;;;18.60;99.90;;;;;;5032395;28;20071;-39
2021/07/19 01:00:47;;;;;;;4.63;3.25;;;18.60;99.90;;;;;;5032304;28;20415;-45
2021/07/19 01:03:13;;;;;;;6.88;3.67;;;18.60;99.90;;;;;;5032336;28;20029;-41
2021/07/19 01:05:42;;;;;;;5.90;3.30;;;18.60;99.90;;;;;;5032165;28;20044;-41
2021/07/19 01:08:08;;;;;;;6.60;4.05;;;18.60;99.90;;;;;;5032222;28;20056;-41
2021/07/19 01:10:35;;;;;;;6.22;4.07;;;18.60;99.90;;;;;;5035185;28;20021;-39
2021/07/19 01:13:01;;;;;;;5.65;3.60;;;18.60;99.90;;;;;;5035878;28;20025;-41
2021/07/19 01:15:29;;;;;;;6.20;3.83;;;18.60;99.90;;;;;;5035793;28;20244;-40
2021/07/19 01:17:55;;;;;;;5.78;3.38;;;18.60;99.90;;;;;;5034482;28;20025;-42
2021/07/19 01:20:30;;;;;;;3.60;3.25;;;18.60;99.90;;;;;;5035590;28;20108;-42
2021/07/19 01:23:33;;;;;;;6.80;3.53;;;18.70;99.90;;;;;;5035620;28;20440;-41
2021/07/19 01:26:25;;;;;;;6.10;3.83;;;18.70;99.90;;;;;;5035596;28;20070;-40
2021/07/19 01:28:52;;;;;;;6.60;3.78;;;18.60;99.90;;;;;;5035413;28;20029;-38
2021/07/19 01:31:24;;;;;;;9.90;4.18;;;18.60;99.90;;;;;;5034100;28;20485;-40
2021/07/19 01:33:56;;;;;;;5.10;3.97;;;18.60;99.90;;;;;;5035534;28;20438;-41
2021/07/19 01:36:26;;;;;;;6.22;3.55;;;18.60;99.90;;;;;;5035327;28;20077;-39
2021/07/19 01:38:53;;;;;;;4.20;3.35;;;18.60;99.90;;;;;;5035402;28;20025;-40
2021/07/19 01:41:20;;;;;;;8.75;3.67;;;18.60;99.90;;;;;;5035103;28;20041;-41
2021/07/19 01:43:49;;;;;;;6.03;3.53;;;18.60;99.90;;;;;;5035357;28;20025;-38
2021/07/19 01:46:15;;;;;;;6.07;3.75;;;18.60;99.90;;;;;;5033970;28;20514;-41
2021/07/19 01:48:42;;;;;;;8.35;3.70;;;18.60;99.90;;;;;;5035136;28;20419;-40
2021/07/19 01:51:10;;;;;;;5.30;3.53;;;18.50;99.90;;;;;;5035178;28;20029;-38
2021/07/19 01:53:36;;;;;;;9.25;3.63;;;18.50;99.90;;;;;;5035042;28;20045;-40
2021/07/19 01:56:03;;;;;;;4.32;3.08;;;18.50;99.90;;;;;;5035054;28;20022;-39
2021/07/19 01:58:29;;;;;;;5.32;3.03;;;18.50;99.90;;;;;;5034990;28;20420;-40
2021/07/19 02:00:55;;;;;;;5.38;3.45;;;18.50;99.90;;;;;;5033707;28;20033;-40
2021/07/19 02:03:22;;;;;;;6.35;3.83;;;18.50;99.90;;;;;;5034895;28;20025;-40
2021/07/19 02:05:50;;;;;;;7.13;3.55;;;18.50;99.90;;;;;;5034904;28;20424;-39
2021/07/19 02:08:17;;;;;;;8.05;3.17;;;18.50;99.90;;;;;;5034782;28;20017;-38
2021/07/19 02:10:47;;;;;;;6.47;3.78;;;18.50;99.90;;;;;;5034734;28;20384;-42
2021/07/19 02:13:14;;;;;;;7.68;3.28;;;18.50;99.90;;;;;;5034757;28;20025;-39
2021/07/19 02:15:41;;;;;;;9.63;4.32;;;18.40;99.90;;;;;;5034546;28;20022;-40
2021/07/19 02:18:10;;;;;;;6.18;3.40;;;18.40;99.90;;;;;;5033824;28;20060;-41
2021/07/19 02:20:36;;;;;;;10.63;3.78;;;18.40;99.90;;;;;;5034282;28;20048;-40
2021/07/19 02:23:03;;;;;;;8.43;3.53;;;18.40;99.90;;;;;;5034416;28;20391;-42
2021/07/19 02:25:29;;;;;;;8.68;4.22;;;18.40;99.90;;;;;;5034514;28;20059;-39
2021/07/19 02:27:55;;;;;;;9.00;3.78;;;18.30;99.90;;;;;;5034503;28;20411;-39
2021/07/19 02:30:22;;;;;;;9.73;3.83;;;18.30;99.90;;;;;;5034424;28;20471;-40
2021/07/19 02:32:53;;;;;;;11.50;3.97;;;18.30;99.90;;;;;;5033080;28;20037;-42
2021/07/19 02:35:19;;;;;;;7.68;3.65;;;18.20;99.90;;;;;;5034487;28;20072;-41
2021/07/19 02:37:47;;;;;;;6.78;3.50;;;18.20;99.90;;;;;;5034093;28;20427;-38
2021/07/19 02:40:16;;;;;;;9.13;3.42;;;18.20;99.90;;;;;;5034241;28;20033;-43
2021/07/19 02:42:45;;;;;;;6.78;3.08;;;18.20;99.90;;;;;;5034051;28;20032;-38
2021/07/19 02:45:16;;;;;;;10.93;3.45;;;18.10;99.90;;;;;;5034143;28;20029;-38
2021/07/19 02:47:44;;;;;;;6.28;2.90;;;18.10;99.90;;;;;;5032708;28;20096;-39
2021/07/19 02:50:12;;;;;;;8.52;2.83;;;18.00;99.90;;;;;;5033922;28;20446;-40
2021/07/19 02:52:38;;;;;;;7.88;3.38;;;18.00;99.90;;;;;;5033967;28;20041;-39
2021/07/19 02:55:06;;;;;;;6.47;2.85;;;18.00;99.90;;;;;;5033930;28;20040;-40
2021/07/19 02:57:34;;;;;;;5.97;2.63;;;18.00;99.90;;;;;;5033887;28;20373;-39
2021/07/19 03:00:00;;;;;;;7.10;2.53;;;18.00;99.90;;;;;;5033837;28;20404;-40
2021/07/19 03:02:26;;;;;;;12.82;3.10;;;17.90;99.90;;;;;;5032437;28;20032;-39
2021/07/19 03:04:56;;;;;;;7.57;2.90;;;17.90;99.90;;;;;;5033930;28;20488;-39
2021/07/19 03:07:22;;;;;;;6.80;2.88;;;17.90;99.90;;;;;;5033726;28;20068;-38
2021/07/19 03:09:55;;;;;;;11.60;3.40;;;17.90;99.90;;;;;;5033644;28;20125;-38
2021/07/19 03:12:23;;;;;;;10.68;2.85;;;17.90;99.90;;;;;;5033665;28;20021;-39
2021/07/19 03:14:49;;;;;;;7.97;3.67;;;17.80;99.90;;;;;;5033542;28;20021;-42
2021/07/19 03:17:18;;;;;;;8.50;3.33;;;17.80;99.90;;;;;;5032195;28;20427;-39
2021/07/19 03:19:50;;;;;;;8.05;3.20;;;17.70;99.90;;;;;;5033548;28;20029;-38
2021/07/19 03:22:16;;;;;;;9.95;3.55;;;17.70;99.90;;;;;;5033394;28;20053;-39
2021/07/19 03:24:45;;;;;;;8.15;3.60;;;17.70;99.90;;;;;;5033378;28;20025;-40
2021/07/19 03:27:11;;;;;;;6.97;4.30;;;17.70;99.90;;;;;;5033657;28;20404;-41
2021/07/19 03:29:37;;;;;;;9.35;4.40;;;17.60;99.90;;;;;;5033273;28;20036;-40
2021/07/19 03:32:04;;;;;;;8.00;4.10;;;17.60;99.90;;;;;;5031318;28;20038;-39
2021/07/19 03:34:30;;;;;;;8.88;4.15;;;17.50;99.90;;;;;;5033263;28;20061;-40
2021/07/19 03:36:56;;;;;;;8.65;4.18;;;17.50;99.90;;;;;;5033077;28;20528;-43
2021/07/19 03:39:23;;;;;;;7.20;3.80;;;17.50;99.90;;;;;;5033155;28;20060;-50
2021/07/19 03:41:53;;;;;;;8.77;3.50;;;17.50;99.90;;;;;;5033015;28;20392;-40
2021/07/19 03:44:20;;;;;;;6.72;3.92;;;17.50;99.90;;;;;;5015291;28;20022;-40
2021/07/19 03:46:46;;;;;;;7.32;3.88;;;17.50;99.90;;;;;;5014028;28;20025;-41
2021/07/19 03:49:14;;;;;;;5.53;3.85;;;17.50;99.90;;;;;;5033070;28;20473;-39
2021/07/19 03:51:42;;;;;;;6.95;4.60;;;17.50;99.90;;;;;;5032960;28;20469;-40
2021/07/19 03:54:08;;;;;;;5.85;3.65;;;17.50;99.90;;;;;;5032955;28;20071;-38
2021/07/19 03:56:35;;;;;;;6.28;4.03;;;17.50;99.90;;;;;;5032970;28;20473;-40
2021/07/19 03:59:02;;;;;;;8.70;4.20;;;17.50;99.90;;;;;;5032827;28;20037;-41
2021/07/19 04:01:27;;;;;;;6.75;4.25;;;17.50;99.90;;;;;;5031495;28;20108;-40
2021/07/19 04:03:55;;;;;;;6.15;3.83;;;17.50;99.90;;;;;;5032822;28;20101;-43
2021/07/19 04:06:22;;;;;;;9.57;4.50;;;17.50;99.90;;;;;;5032813;28;20041;-38
2021/07/19 04:08:49;;;;;;;8.70;4.40;;;17.50;99.90;;;;;;5032776;28;20527;-39
2021/07/19 04:11:16;;;;;;;7.07;3.83;;;17.50;99.90;;;;;;5032648;28;20087;-41
2021/07/19 04:13:43;;;;;;;10.55;3.60;;;17.60;99.90;;;;;;5032634;28;20476;-41
2021/07/19 04:16:13;;;;;;;9.43;4.03;;;18.10;99.90;;;;;;5031512;28;20391;-40
2021/07/19 04:18:39;;;;;;;10.52;4.35;;;18.60;99.90;;;;;;5032660;28;20029;-40
2021/07/19 04:21:04;;;;;;;8.63;4.05;;;18.60;99.90;;;;;;5032669;28;20029;-38
2021/07/19 04:23:31;;;;;;;8.95;4.07;;;18.50;99.90;;;;;;5032705;28;20025;-40
2021/07/19 04:25:57;;;;;;;6.93;3.70;;;18.40;99.90;;;;;;5032527;28;20022;-38
2021/07/19 04:28:23;;;;;;;13.25;4.88;;;18.20;99.90;;;;;;5032606;28;20366;-39
2021/07/19 04:30:52;;;;;;;10.77;4.47;;;18.10;99.90;;;;;;5031266;28;20056;-41
2021/07/19 04:33:19;;;;;;;9.30;4.47;;;17.90;99.90;;;;;;5032626;28;20030;-40
2021/07/19 04:35:46;;;;;;;6.47;3.78;;;17.90;99.90;;;;;;5032437;28;20383;-40
2021/07/19 04:38:16;;;;;;;8.27;4.15;;;17.90;99.90;;;;;;5032641;28;20021;-40
2021/07/19 04:40:46;;;;;;;6.63;3.40;;;17.80;99.90;;;;;;5032407;28;20423;-40
2021/07/19 04:43:12;;;;;;;8.15;3.67;;;17.90;99.90;;;;;;5033489;28;20112;-41
2021/07/19 04:45:38;;;;;;;9.77;3.83;;;17.90;99.90;;;;;;5035905;28;20025;-39
2021/07/19 04:48:04;;;;;;;8.15;3.60;;;18.00;99.90;;;;;;5035852;28;20072;-40
2021/07/19 04:50:29;;;;;;;11.23;4.00;;;18.20;99.90;;;;;;5036408;28;20022;-40
2021/07/19 04:52:55;;;;;;;8.32;3.22;;;18.60;99.90;;;;;;5036255;28;20078;-39
2021/07/19 04:55:23;;;;;;;8.60;4.13;;;19.70;99.90;;;;;;5036181;28;20033;-38
2021/07/19 04:57:52;;;;;;;10.77;3.83;;;20.60;99.90;;;;;;5036178;28;20037;-38
2021/07/19 05:03:43;;;;;;;6.00;3.08;;;22.10;99.90;;;;;;5036188;28;20435;-40
2021/07/19 05:06:10;;;;;;;9.38;3.60;;;22.80;99.90;;;;;;5036026;28;20031;-44
2021/07/19 05:08:39;;;;;;;9.93;3.67;;;23.60;99.90;;;;;;5035982;28;20028;-38
2021/07/19 05:11:05;;;;;;;6.25;3.10;;;24.60;99.90;;;;;;5036238;28;20021;-42
2021/07/19 05:13:32;;;;;;;5.32;3.17;;;25.00;98.60;;;;;;5035960;28;20044;-39
2021/07/19 05:15:58;;;;;;;7.90;3.55;;;25.30;96.40;;;;;;5034577;28;20367;-40
2021/07/19 05:18:24;;;;;;;7.70;3.00;;;25.30;95.20;;;;;;5035878;28;20345;-40
2021/07/19 05:20:50;;;;;;;10.70;2.83;;;24.80;95.50;;;;;;5035686;28;20420;-38
2021/07/19 05:23:22;;;;;;;5.28;2.95;;;25.00;95.20;;;;;;5035804;28;20055;-39
2021/07/19 05:25:47;;;;;;;4.47;2.80;;;25.70;87.70;;;;;;5035673;28;20393;-44
2021/07/19 05:28:14;;;;;;;7.85;3.40;;;26.40;90.70;;;;;;5035670;28;20033;-39
2021/07/19 05:30:46;;;;;;;5.95;2.65;;;26.90;85.50;;;;;;5034395;28;20469;-40
2021/07/19 05:33:13;;;;;;;10.05;3.83;;;27.40;79.40;;;;;;5035821;28;20368;-39
2021/07/19 05:35:38;;;;;;;5.90;2.95;;;28.00;78.30;;;;;;5035387;28;20046;-43
2021/07/19 05:38:05;;;;;;;5.75;2.58;;;28.50;76.10;;;;;;5035442;28;20031;-41
2021/07/19 05:40:34;;;;;;;9.43;3.58;;;28.90;70.80;;;;;;5035417;28;20387;-39
2021/07/19 05:43:00;;;;;;;6.38;3.15;;;28.90;68.50;;;;;;5035316;28;20384;-40
2021/07/19 05:45:26;;;;;;;7.20;3.47;;;29.10;65.20;;;;;;5035232;28;20029;-39
2021/07/19 05:47:51;;;;;;;10.25;3.08;;;29.30;63.90;;;;;;5033938;28;20029;-44
2021/07/19 05:50:17;;;;;;;6.70;3.28;;;29.40;63.20;;;;;;5035227;28;20104;-40
2021/07/19 05:52:42;;;;;;;6.00;2.95;;;29.90;57.90;;;;;;5035185;28;20060;-39
2021/07/19 05:55:09;;;;;;;8.40;3.22;;;30.30;58.80;;;;;;5034417;28;20033;-41
2021/07/19 05:57:35;;;;;;;5.05;2.97;;;30.60;57.00;;;;;;5035132;28;20052;-41
2021/07/19 06:00:01;;;;;;;8.65;3.33;;;30.90;56.10;;;;;;5034880;28;20473;-39
2021/07/19 06:02:27;;;;;;;6.65;3.03;;;31.50;54.10;;;;;;5033689;28;20032;-41
2021/07/19 06:04:54;;;;;;;8.30;3.15;;;32.00;51.80;;;;;;5034985;28;20488;-40
2021/07/19 06:07:20;;;;;;;6.43;2.85;;;32.20;48.20;;;;;;5034950;28;20053;-40
2021/07/19 06:09:45;;;;;;;8.40;2.85;;;32.10;46.20;;;;;;5017227;28;20056;-39
2021/07/19 06:12:12;;;;;;;5.03;3.28;;;32.30;46.80;;;;;;5034882;28;20539;-40
2021/07/19 06:14:37;;;;;;;10.25;3.70;;;32.60;46.20;;;;;;5034746;28;20034;-45
2021/07/19 06:17:03;;;;;;;4.97;2.88;;;32.50;45.70;;;;;;5033493;28;20071;-41
2021/07/19 06:19:29;;;;;;;5.15;2.97;;;32.80;45.30;;;;;;5034783;28;20040;-39
2021/07/19 06:21:55;;;;;;;5.93;2.80;;;33.00;43.60;;;;;;5034585;28;20025;-40
2021/07/19 06:24:21;;;;;;;8.35;3.03;;;33.40;43.30;;;;;;5034634;28;20124;-44
2021/07/19 06:26:46;;;;;;;9.75;3.03;;;33.80;41.80;;;;;;5034585;28;20144;-39
2021/07/19 06:29:12;;;;;;;5.25;2.97;;;34.10;40.70;;;;;;5034407;28;20381;-41
2021/07/19 06:31:37;;;;;;;7.30;3.47;;;34.60;39.40;;;;;;5033171;28;20030;-40
2021/07/19 06:34:03;;;;;;;9.52;2.70;;;34.60;37.20;;;;;;5034410;28;20476;-41
2021/07/19 06:36:28;;;;;;;7.65;3.28;;;34.70;36.70;;;;;;5034253;28;20053;-43
2021/07/19 06:38:54;;;;;;;6.03;3.03;;;34.30;36.30;;;;;;5034315;28;20030;-41
2021/07/19 06:41:19;;;;;;;7.25;3.30;;;34.60;35.50;;;;;;5034194;28;20029;-40
2021/07/19 06:43:45;;;;;;;8.05;2.90;;;35.00;34.70;;;;;;5034086;28;20029;-41
2021/07/19 06:46:10;;;;;;;5.30;2.58;;;35.20;33.80;;;;;;5032899;28;20036;-40
2021/07/19 06:48:36;;;;;;;4.53;2.60;;;35.40;33.00;;;;;;5034363;28;20314;-39
2021/07/19 06:51:02;;;;;;;5.47;2.92;;;35.50;32.70;;;;;;5034053;28;20034;-42
2021/07/19 06:53:28;;;;;;;4.53;2.40;;;35.70;32.40;;;;;;5034058;28;20022;-42
2021/07/19 06:55:54;;;;;;;5.45;3.00;;;35.90;31.60;;;;;;5033976;28;20041;-44
2021/07/19 06:58:20;;;;;;;7.55;3.13;;;36.00;31.20;;;;;;5033856;28;20061;-39
2021/07/19 07:00:45;;;;;;;6.72;2.95;;;36.20;30.80;;;;;;5032650;28;20029;-40
2021/07/19 07:03:11;;;;;;;9.15;3.08;;;36.30;30.00;;;;;;5033780;28;20407;-42
2021/07/19 07:05:36;;;;;;;6.70;2.95;;;36.50;28.50;;;;;;5033885;28;20036;-40
2021/07/19 07:08:03;;;;;;;10.55;3.58;;;36.20;28.90;;;;;;5032801;28;20097;-42
2021/07/19 07:10:29;;;;;;;8.43;3.55;;;35.90;28.50;;;;;;5016067;28;20494;-43
2021/07/19 07:12:54;;;;;;;9.57;2.88;;;36.30;28.30;;;;;;5033558;28;20059;-43
2021/07/19 07:15:20;;;;;;;5.35;3.20;;;36.70;27.90;;;;;;5033650;28;20030;-40
2021/07/19 07:17:46;;;;;;;6.05;2.85;;;37.00;27.00;;;;;;5032315;28;20030;-40
2021/07/19 07:20:12;;;;;;;13.80;3.30;;;37.50;26.70;;;;;;5033499;28;20033;-43
2021/07/19 07:22:38;;;;;;;4.00;2.95;;;38.10;26.40;;;;;;5033489;28;20365;-40
2021/07/19 07:25:05;;;;;;;4.80;2.42;;;38.30;25.80;;;;;;5033408;28;20028;-41
2021/07/19 07:27:31;;;;;;;7.55;3.08;;;38.40;25.10;;;;;;5033301;28;20014;-40
2021/07/19 07:29:56;;;;;;;4.75;3.00;;;38.30;24.90;;;;;;5033346;28;20030;-42
2021/07/19 07:32:22;;;;;;;5.35;2.88;;;38.50;24.60;;;;;;5032071;28;20385;-43
2021/07/19 07:34:47;;;;;;;4.32;2.72;;;38.80;24.20;;;;;;5033290;28;20064;-42
2021/07/19 07:37:13;;;;;;;5.32;3.30;;;39.20;23.80;;;;;;5033126;28;20049;-40
2021/07/19 07:39:42;;;;;;;7.05;3.20;;;39.50;22.10;;;;;;5033298;28;20033;-42
2021/07/19 07:42:09;;;;;;;7.07;3.60;;;39.40;22.00;;;;;;5032966;28;20024;-40
2021/07/19 07:44:35;;;;;;;7.03;3.65;;;38.50;22.50;;;;;;5033180;28;20075;-41
2021/07/19 07:47:01;;;;;;;6.03;2.90;;;37.60;23.10;;;;;;5031810;28;20058;-43
2021/07/19 07:49:26;;;;;;;8.90;4.05;;;36.30;23.90;;;;;;5033077;28;20030;-42
2021/07/19 07:51:54;;;;;;;6.45;3.45;;;35.70;24.60;;;;;;5033103;28;20056;-40
2021/07/19 07:54:20;;;;;;;7.88;4.30;;;36.20;23.90;;;;;;5033008;28;20033;-40
2021/07/19 07:56:46;;;;;;;6.25;4.53;;;35.50;24.30;;;;;;5032867;28;20041;-39
2021/07/19 07:59:13;;;;;;;5.53;3.92;;;34.30;24.70;;;;;;5032954;28;20419;-40
2021/07/19 08:01:39;;;;;;;6.68;4.05;;;33.10;25.70;;;;;;5031594;28;20029;-41
2021/07/19 08:04:04;;;;;;;7.80;4.40;;;33.30;25.90;;;;;;5032899;28;20072;-40
2021/07/19 08:06:30;;;;;;;5.80;3.90;;;34.70;25.00;;;;;;5032852;28;20029;-40
2021/07/19 08:08:55;;;;;;;6.57;3.80;;;34.70;24.70;;;;;;5032869;28;20071;-40
2021/07/19 08:11:21;;;;;;;4.57;3.88;;;33.60;25.00;;;;;;5032759;28;20025;-39
2021/07/19 08:13:46;;;;;;;4.82;4.03;;;33.30;24.90;;;;;;5032822;28;20025;-40
2021/07/19 08:16:12;;;;;;;6.10;4.40;;;34.40;24.90;;;;;;5031551;28;20476;-40
2021/07/19 08:18:37;;;;;;;6.88;4.70;;;34.20;24.60;;;;;;5034533;28;20075;-40
2021/07/19 08:21:03;;;;;;;5.32;4.25;;;33.00;25.30;;;;;;5036756;28;20108;-42
2021/07/19 08:23:29;;;;;;;6.38;4.45;;;32.20;26.20;;;;;;5036885;28;20132;-41
2021/07/19 08:25:54;;;;;;;6.72;4.40;;;33.30;25.90;;;;;;5036714;28;20025;-42
2021/07/19 08:28:20;;;;;;;5.28;3.92;;;33.70;25.40;;;;;;5036726;28;20052;-40
2021/07/19 08:30:45;;;;;;;8.65;4.38;;;34.00;25.40;;;;;;5035496;28;20080;-40
2021/07/19 08:33:11;;;;;;;6.63;4.53;;;33.60;24.70;;;;;;5036635;28;20484;-39
2021/07/19 08:35:37;;;;;;;5.60;4.18;;;32.30;25.50;;;;;;5036479;28;20181;-41
2021/07/19 08:38:03;;;;;;;6.28;4.65;;;31.20;26.50;;;;;;5036582;28;20068;-43
2021/07/19 08:40:29;;;;;;;7.03;4.60;;;30.10;27.40;;;;;;5036414;28;20022;-41
2021/07/19 08:42:55;;;;;;;7.68;5.20;;;29.20;28.60;;;;;;5036451;28;20034;-39
2021/07/19 08:45:22;;;;;;;7.53;4.95;;;28.50;29.70;;;;;;5036433;28;20112;-45
2021/07/19 08:47:50;;;;;;;6.35;4.57;;;27.90;30.50;;;;;;5035092;28;20043;-39
2021/07/19 08:50:17;;;;;;;6.65;4.25;;;27.40;31.60;;;;;;5036400;28;20021;-40
2021/07/19 08:52:50;;;;;;;7.25;4.22;;;27.30;31.80;;;;;;5036211;28;20021;-41
2021/07/19 08:55:16;;;;;;;9.07;5.07;;;27.20;32.80;;;;;;5036096;28;20561;-39
2021/07/19 08:57:46;;;;;;;7.88;5.32;;;26.80;33.30;;;;;;5036245;28;20473;-41
2021/07/19 09:00:12;;;;;;;8.15;5.25;;;26.50;34.70;;;;;;5036145;28;20030;-39
2021/07/19 09:02:38;;;;;;;8.35;4.60;;;26.00;35.70;;;;;;5034793;28;20452;-39
2021/07/19 09:05:05;;;;;;;6.38;4.22;;;25.70;36.10;;;;;;5036043;28;20053;-39
2021/07/19 09:07:33;;;;;;;8.38;5.00;;;25.50;37.10;;;;;;5036088;28;20026;-41
2021/07/19 09:09:59;;;;;;;8.00;5.32;;;25.40;37.70;;;;;;5035968;28;20113;-41
2021/07/19 09:12:34;;;;;;;8.80;5.25;;;25.40;37.40;;;;;;5035873;28;20040;-39
2021/07/19 09:14:59;;;;;;;9.35;5.30;;;25.20;39.60;;;;;;5035954;28;20036;-39
2021/07/19 09:17:27;;;;;;;11.05;4.72;;;25.00;38.90;;;;;;5034528;28;20400;-38
2021/07/19 09:19:54;;;;;;;6.80;4.50;;;25.00;39.90;;;;;;5035737;28;20130;-39
2021/07/19 09:22:30;;;;;;;6.03;4.50;;;24.90;40.30;;;;;;5035585;28;20057;-40
2021/07/19 09:25:06;;;;;;;8.65;4.75;;;25.00;40.70;;;;;;5035721;28;20032;-39
2021/07/19 09:27:31;;;;;;;7.10;4.57;;;25.00;41.10;;;;;;5035702;28;20096;-38
2021/07/19 09:29:57;;;;;;;7.70;4.60;;;25.00;40.70;;;;;;5034577;28;20112;-39
2021/07/19 09:32:23;;;;;;;6.10;4.90;;;24.70;41.20;;;;;;5034309;28;20041;-38
2021/07/19 09:34:49;;;;;;;5.43;4.18;;;24.50;41.60;;;;;;5035479;28;20033;-40
2021/07/19 09:37:15;;;;;;;8.20;4.50;;;24.30;42.20;;;;;;5035469;28;20095;-44
2021/07/19 09:39:49;;;;;;;9.10;5.10;;;24.10;43.00;;;;;;5035418;28;20032;-40
2021/07/19 09:42:21;;;;;;;7.38;4.85;;;24.00;44.60;;;;;;5035283;28;20030;-38
2021/07/19 09:44:58;;;;;;;6.53;4.65;;;23.80;44.70;;;;;;5035371;28;20033;-41
2021/07/19 09:47:36;;;;;;;7.55;4.82;;;23.40;45.80;;;;;;5033944;28;20092;-42
2021/07/19 09:50:08;;;;;;;7.72;4.53;;;23.30;46.40;;;;;;5035314;28;20021;-39
2021/07/19 09:52:35;;;;;;;9.82;4.30;;;23.10;48.20;;;;;;5035211;28;20026;-41
2021/07/19 09:55:00;;;;;;;8.40;4.45;;;23.00;47.20;;;;;;5035224;28;20089;-39
2021/07/19 09:57:26;;;;;;;6.82;4.47;;;23.00;47.60;;;;;;5035082;28;20480;-38
2021/07/19 09:59:53;;;;;;;5.82;3.90;;;23.00;48.00;;;;;;5035019;28;20037;-39
2021/07/19 10:02:33;;;;;;;7.47;4.30;;;23.00;48.20;;;;;;5033653;28;20468;-40
2021/07/19 10:04:58;;;;;;;6.25;4.30;;;23.10;48.60;;;;;;5035115;28;20025;-38
2021/07/19 10:07:24;;;;;;;7.50;4.70;;;23.20;48.30;;;;;;5034943;28;20097;-39
2021/07/19 10:09:58;;;;;;;10.80;4.38;;;23.30;48.00;;;;;;5034899;28;20501;-39
2021/07/19 10:12:24;;;;;;;8.40;4.97;;;23.30;48.30;;;;;;5034659;28;20030;-39
2021/07/19 10:14:51;;;;;;;10.88;4.82;;;23.20;48.70;;;;;;5034908;28;20060;-38
2021/07/19 10:17:17;;;;;;;6.80;3.72;;;23.10;49.40;;;;;;5033447;28;20052;-41
2021/07/19 10:19:43;;;;;;;9.25;4.53;;;22.90;50.30;;;;;;5034766;28;20037;-44
2021/07/19 10:22:10;;;;;;;6.85;4.20;;;22.70;51.10;;;;;;5034626;28;20424;-38
2021/07/19 10:24:40;;;;;;;5.32;3.65;;;22.40;53.00;;;;;;5034548;28;20026;-38
2021/07/19 10:27:06;;;;;;;7.93;4.72;;;22.40;53.20;;;;;;5034576;28;20273;-43
2021/07/19 10:29:31;;;;;;;7.85;4.72;;;22.20;53.70;;;;;;5034473;28;20383;-38
2021/07/19 10:31:57;;;;;;;6.97;3.97;;;22.20;54.10;;;;;;5033301;28;20037;-38
2021/07/19 10:34:23;;;;;;;5.88;3.85;;;22.30;54.40;;;;;;5034435;28;20072;-43
2021/07/19 10:37:00;;;;;;;10.70;4.57;;;22.40;54.30;;;;;;5034476;28;20452;-38
2021/07/19 10:39:35;;;;;;;6.38;4.57;;;22.60;54.80;;;;;;5034201;28;20117;-41
2021/07/19 10:42:03;;;;;;;6.03;3.53;;;22.70;55.00;;;;;;5033998;28;20071;-40
2021/07/19 10:44:36;;;;;;;5.25;3.83;;;22.60;55.20;;;;;;5034234;28;20018;-40
2021/07/19 10:47:17;;;;;;;7.93;4.22;;;22.60;54.80;;;;;;5032980;28;20033;-41
2021/07/19 10:50:00;;;;;;;7.57;4.00;;;22.70;57.20;;;;;;5034490;28;20032;-38
2021/07/19 10:52:39;;;;;;;9.73;4.90;;;22.60;56.30;;;;;;5034046;28;20030;-38
2021/07/19 10:55:10;;;;;;;6.43;4.28;;;22.60;57.20;;;;;;5034111;28;20033;-38
2021/07/19 10:57:44;;;;;;;8.77;4.40;;;22.60;57.40;;;;;;5033956;28;20028;-39
2021/07/19 11:00:19;;;;;;;8.43;5.25;;;22.70;56.70;;;;;;5033929;28;20121;-40
2021/07/19 11:02:44;;;;;;;8.50;4.95;;;22.70;57.10;;;;;;5032722;28;20037;-42
2021/07/19 11:05:14;;;;;;;9.98;4.57;;;22.70;57.00;;;;;;5033863;28;20385;-39
2021/07/19 11:07:44;;;;;;;6.72;4.18;;;22.80;56.90;;;;;;5033843;28;20097;-39
2021/07/19 11:10:17;;;;;;;9.60;4.35;;;22.90;57.20;;;;;;5033765;28;20034;-40
2021/07/19 11:12:47;;;;;;;6.45;4.10;;;23.00;57.00;;;;;;5033678;28;20432;-38
2021/07/19 11:15:13;;;;;;;5.43;3.88;;;23.20;56.60;;;;;;5033637;28;20034;-40
2021/07/19 11:17:38;;;;;;;5.82;3.85;;;23.50;55.90;;;;;;5032297;28;20068;-41
2021/07/19 11:20:12;;;;;;;6.60;4.18;;;23.80;54.90;;;;;;5033623;28;20358;-41
2021/07/19 11:22:38;;;;;;;4.90;3.95;;;24.10;54.40;;;;;;5033426;28;20071;-39
2021/07/19 11:25:12;;;;;;;5.18;3.72;;;24.40;53.00;;;;;;5033499;28;20105;-41
2021/07/19 11:27:44;;;;;;;8.57;4.38;;;24.60;52.00;;;;;;5033351;28;20044;-39
2021/07/19 11:30:11;;;;;;;6.75;4.35;;;24.90;51.30;;;;;;5033423;28;20108;-41
2021/07/19 11:32:38;;;;;;;7.60;4.68;;;25.10;51.20;;;;;;5032059;28;20025;-41
2021/07/19 11:35:07;;;;;;;5.78;3.55;;;25.30;51.00;;;;;;5033327;28;20056;-40
2021/07/19 11:37:34;;;;;;;6.13;3.22;;;25.50;50.40;;;;;;5033139;28;20496;-41
2021/07/19 11:40:00;;;;;;;7.80;3.97;;;25.70;50.10;;;;;;5033096;28;20034;-40
2021/07/19 11:42:33;;;;;;;5.22;3.63;;;25.80;49.70;;;;;;5033072;28;20088;-39
2021/07/19 11:45:13;;;;;;;5.72;3.60;;;26.00;49.10;;;;;;5033410;28;20026;-39
2021/07/19 11:47:41;;;;;;;5.18;3.00;;;26.20;49.10;;;;;;5031827;28;20022;-42
2021/07/19 11:50:07;;;;;;;5.45;2.92;;;26.20;47.00;;;;;;5033133;28;20439;-41
2021/07/19 11:52:33;;;;;;;4.25;2.80;;;26.10;46.50;;;;;;5032448;28;20197;-39
2021/07/19 11:54:59;;;;;;;4.90;3.22;;;26.10;46.20;;;;;;5032946;28;20130;-41
2021/07/19 11:57:25;;;;;;;5.53;2.58;;;26.10;46.20;;;;;;5033018;28;20034;-39
2021/07/19 11:59:51;;;;;;;4.35;3.15;;;25.90;46.60;;;;;;5033027;28;20542;-41
2021/07/19 12:02:26;;;;;;;4.18;3.05;;;25.70;45.80;;;;;;5031657;28;20388;-42
2021/07/19 12:04:52;;;;;;;4.47;2.78;;;25.40;46.00;;;;;;5032970;28;20439;-39
2021/07/19 12:07:18;;;;;;;6.85;3.17;;;25.20;46.60;;;;;;5032899;28;20065;-39
2021/07/19 12:09:45;;;;;;;4.15;2.70;;;25.10;46.90;;;;;;5032839;28;20029;-41
2021/07/19 12:12:11;;;;;;;5.00;2.75;;;24.90;47.20;;;;;;5032846;28;20439;-39
2021/07/19 12:14:37;;;;;;;3.83;2.63;;;24.80;47.90;;;;;;5032809;28;20109;-39
2021/07/19 12:17:04;;;;;;;5.60;2.80;;;24.70;48.30;;;;;;5031585;28;20040;-38
2021/07/19 12:19:30;;;;;;;4.72;3.28;;;24.70;48.70;;;;;;5032727;28;20024;-41
2021/07/19 12:22:00;;;;;;;7.28;2.83;;;24.60;48.60;;;;;;5032679;28;20034;-39
2021/07/19 12:24:28;;;;;;;3.47;2.55;;;24.70;48.80;;;;;;5032746;28;20017;-41
2021/07/19 12:26:56;;;;;;;4.20;2.90;;;24.70;48.20;;;;;;5032768;28;20014;-42
2021/07/19 12:29:30;;;;;;;4.00;3.10;;;24.80;48.10;;;;;;5032641;28;20354;-39
2021/07/19 12:31:59;;;;;;;5.50;2.65;;;24.90;48.00;;;;;;5031415;28;20026;-39
2021/07/19 12:34:33;;;;;;;6.03;3.00;;;24.80;47.80;;;;;;5032659;28;20511;-39
2021/07/19 12:37:00;;;;;;;4.75;2.75;;;24.70;48.50;;;;;;5032467;28;20140;-39
2021/07/19 12:39:31;;;;;;;3.33;2.60;;;24.60;48.90;;;;;;5032569;28;20032;-41
2021/07/19 12:41:58;;;;;;;4.03;2.58;;;24.30;48.90;;;;;;5032701;28;20029;-40
2021/07/19 12:44:31;;;;;;;5.70;2.90;;;24.20;49.40;;;;;;5032587;28;20432;-38
2021/07/19 12:46:58;;;;;;;5.65;2.70;;;24.00;50.20;;;;;;5031577;28;20075;-39
2021/07/19 12:49:25;;;;;;;6.15;2.60;;;23.90;51.10;;;;;;5032546;28;20025;-41
2021/07/19 12:51:56;;;;;;;2.90;2.60;;;23.70;51.80;;;;;;5032521;28;20026;-43